sensor_id;sensor_type;location;lat;lon;timestamp;P1;durP1;ratioP1;P2;durP2;ratioP2
74293;SDS011;64044;59.904;10.738;2022-10-31T00:01:35;4.80;;;3.20;;
74293;SDS011;64044;59.904;10.738;2022-10-31T00:04:03;5.20;;;2.70;;
74293;SDS011;64044;59.904;10.738;2022-10-31T00:06:29;4.40;;;3.08;;
74293;SDS011;64044;59.904;10.738;2022-10-31T00:08:56;4.07;;;2.78;;
74293;SDS011;64044;59.904;10.738;2022-10-31T00:11:27;3.03;;;2.40;;
74293;SDS011;64044;59.904;10.738;2022-10-31T00:13:52;3.70;;;2.53;;
74293;SDS011;64044;59.904;10.738;2022-10-31T00:16:19;4.82;;;2.92;;
74293;SDS011;64044;59.904;10.738;2022-10-31T00:18:50;3.88;;;2.63;;
74293;SDS011;64044;59.904;10.738;2022-10-31T00:21:17;3.95;;;2.63;;
74293;SDS011;64044;59.904;10.738;2022-10-31T00:23:42;3.67;;;3.05;;
74293;SDS011;64044;59.904;10.738;2022-10-31T00:26:08;3.50;;;2.63;;
74293;SDS011;64044;59.904;10.738;2022-10-31T00:28:34;4.43;;;2.92;;
74293;SDS011;64044;59.904;10.738;2022-10-31T00:31:00;3.38;;;2.33;;
74293;SDS011;64044;59.904;10.738;2022-10-31T00:33:30;2.65;;;2.30;;
74293;SDS011;64044;59.904;10.738;2022-10-31T00:35:58;3.30;;;2.38;;
74293;SDS011;64044;59.904;10.738;2022-10-31T00:38:24;3.33;;;2.45;;
74293;SDS011;64044;59.904;10.738;2022-10-31T00:40:49;3.55;;;2.28;;
74293;SDS011;64044;59.904;10.738;2022-10-31T00:43:15;3.50;;;2.45;;
74293;SDS011;64044;59.904;10.738;2022-10-31T00:45:41;4.68;;;2.72;;
74293;SDS011;64044;59.904;10.738;2022-10-31T00:48:07;4.40;;;2.50;;
74293;SDS011;64044;59.904;10.738;2022-10-31T00:50:34;3.67;;;2.53;;
74293;SDS011;64044;59.904;10.738;2022-10-31T00:52:59;4.43;;;2.45;;
74293;SDS011;64044;59.904;10.738;2022-10-31T00:55:25;4.13;;;3.05;;
74293;SDS011;64044;59.904;10.738;2022-10-31T00:57:51;2.30;;;1.83;;
74293;SDS011;64044;59.904;10.738;2022-10-31T01:00:16;3.80;;;2.22;;
74293;SDS011;64044;59.904;10.738;2022-10-31T01:02:42;5.15;;;2.17;;
74293;SDS011;64044;59.904;10.738;2022-10-31T01:05:08;3.55;;;2.35;;
74293;SDS011;64044;59.904;10.738;2022-10-31T01:07:37;3.42;;;2.28;;
74293;SDS011;64044;59.904;10.738;2022-10-31T01:10:04;4.65;;;2.70;;
74293;SDS011;64044;59.904;10.738;2022-10-31T01:12:44;2.80;;;2.33;;
74293;SDS011;64044;59.904;10.738;2022-10-31T01:15:13;4.07;;;2.05;;
74293;SDS011;64044;59.904;10.738;2022-10-31T01:17:44;3.00;;;2.22;;
74293;SDS011;64044;59.904;10.738;2022-10-31T01:20:10;2.88;;;2.00;;
74293;SDS011;64044;59.904;10.738;2022-10-31T01:22:37;4.43;;;2.33;;
74293;SDS011;64044;59.904;10.738;2022-10-31T01:25:03;2.20;;;2.00;;
74293;SDS011;64044;59.904;10.738;2022-10-31T01:27:30;3.85;;;1.98;;
74293;SDS011;64044;59.904;10.738;2022-10-31T01:29:56;2.72;;;2.00;;
74293;SDS011;64044;59.904;10.738;2022-10-31T01:32:22;2.95;;;2.05;;
74293;SDS011;64044;59.904;10.738;2022-10-31T01:34:48;2.67;;;2.20;;
74293;SDS011;64044;59.904;10.738;2022-10-31T01:37:14;2.67;;;2.03;;
74293;SDS011;64044;59.904;10.738;2022-10-31T01:39:39;3.85;;;2.05;;
74293;SDS011;64044;59.904;10.738;2022-10-31T01:42:05;5.32;;;2.47;;
74293;SDS011;64044;59.904;10.738;2022-10-31T01:46:58;3.60;;;1.67;;
74293;SDS011;64044;59.904;10.738;2022-10-31T01:54:51;2.97;;;2.10;;
74293;SDS011;64044;59.904;10.738;2022-10-31T01:57:23;2.72;;;1.80;;
74293;SDS011;64044;59.904;10.738;2022-10-31T01:59:51;2.78;;;1.95;;
74293;SDS011;64044;59.904;10.738;2022-10-31T02:02:21;2.92;;;1.88;;
74293;SDS011;64044;59.904;10.738;2022-10-31T02:04:48;2.30;;;2.10;;
74293;SDS011;64044;59.904;10.738;2022-10-31T02:07:16;2.53;;;1.80;;
74293;SDS011;64044;59.904;10.738;2022-10-31T02:09:45;3.65;;;2.28;;
74293;SDS011;64044;59.904;10.738;2022-10-31T02:12:13;2.70;;;2.20;;
74293;SDS011;64044;59.904;10.738;2022-10-31T02:14:40;3.42;;;2.25;;
74293;SDS011;64044;59.904;10.738;2022-10-31T02:17:06;3.80;;;2.17;;
74293;SDS011;64044;59.904;10.738;2022-10-31T02:19:34;4.43;;;2.60;;
74293;SDS011;64044;59.904;10.738;2022-10-31T02:30:41;3.33;;;2.20;;
74293;SDS011;64044;59.904;10.738;2022-10-31T02:33:14;4.13;;;2.58;;
74293;SDS011;64044;59.904;10.738;2022-10-31T02:35:50;6.18;;;2.67;;
74293;SDS011;64044;59.904;10.738;2022-10-31T02:49:22;20.10;;;6.85;;
74293;SDS011;64044;59.904;10.738;2022-10-31T02:51:56;12.65;;;5.28;;
74293;SDS011;64044;59.904;10.738;2022-10-31T02:54:23;10.75;;;5.40;;
74293;SDS011;64044;59.904;10.738;2022-10-31T02:56:51;7.90;;;4.47;;
74293;SDS011;64044;59.904;10.738;2022-10-31T02:59:23;11.85;;;4.82;;
74293;SDS011;64044;59.904;10.738;2022-10-31T03:04:25;9.15;;;5.20;;
74293;SDS011;64044;59.904;10.738;2022-10-31T03:07:13;9.30;;;4.80;;
74293;SDS011;64044;59.904;10.738;2022-10-31T03:21:09;14.00;;;5.78;;
74293;SDS011;64044;59.904;10.738;2022-10-31T03:23:42;15.23;;;5.43;;
74293;SDS011;64044;59.904;10.738;2022-10-31T03:26:10;9.13;;;4.72;;
74293;SDS011;64044;59.904;10.738;2022-10-31T03:28:39;12.10;;;4.22;;
74293;SDS011;64044;59.904;10.738;2022-10-31T03:31:17;21.63;;;4.65;;
74293;SDS011;64044;59.904;10.738;2022-10-31T03:33:44;8.85;;;3.85;;
74293;SDS011;64044;59.904;10.738;2022-10-31T03:36:12;17.08;;;5.47;;
74293;SDS011;64044;59.904;10.738;2022-10-31T03:38:41;15.98;;;4.93;;
74293;SDS011;64044;59.904;10.738;2022-10-31T03:41:11;38.15;;;5.10;;
74293;SDS011;64044;59.904;10.738;2022-10-31T03:43:43;23.17;;;5.80;;
74293;SDS011;64044;59.904;10.738;2022-10-31T04:14:18;9.57;;;4.90;;
74293;SDS011;64044;59.904;10.738;2022-10-31T04:16:47;8.25;;;4.35;;
74293;SDS011;64044;59.904;10.738;2022-10-31T04:19:13;10.13;;;5.22;;
74293;SDS011;64044;59.904;10.738;2022-10-31T04:21:39;8.68;;;4.80;;
74293;SDS011;64044;59.904;10.738;2022-10-31T04:24:08;12.45;;;5.45;;
74293;SDS011;64044;59.904;10.738;2022-10-31T04:26:34;11.15;;;5.20;;
74293;SDS011;64044;59.904;10.738;2022-10-31T04:28:59;10.20;;;5.95;;
74293;SDS011;64044;59.904;10.738;2022-10-31T04:31:25;7.28;;;5.18;;
74293;SDS011;64044;59.904;10.738;2022-10-31T04:33:51;8.73;;;4.78;;
74293;SDS011;64044;59.904;10.738;2022-10-31T04:36:16;9.85;;;5.20;;
74293;SDS011;64044;59.904;10.738;2022-10-31T04:38:42;6.97;;;4.70;;
74293;SDS011;64044;59.904;10.738;2022-10-31T04:41:07;6.90;;;4.80;;
74293;SDS011;64044;59.904;10.738;2022-10-31T04:43:33;8.18;;;4.95;;
74293;SDS011;64044;59.904;10.738;2022-10-31T04:45:59;14.52;;;7.20;;
74293;SDS011;64044;59.904;10.738;2022-10-31T04:48:24;13.30;;;7.03;;
74293;SDS011;64044;59.904;10.738;2022-10-31T04:50:50;11.20;;;6.40;;
74293;SDS011;64044;59.904;10.738;2022-10-31T04:53:15;10.32;;;5.90;;
74293;SDS011;64044;59.904;10.738;2022-10-31T04:55:41;11.50;;;5.80;;
74293;SDS011;64044;59.904;10.738;2022-10-31T05:00:32;12.50;;;6.93;;
74293;SDS011;64044;59.904;10.738;2022-10-31T05:05:50;11.00;;;6.25;;
74293;SDS011;64044;59.904;10.738;2022-10-31T05:08:15;10.27;;;6.55;;
74293;SDS011;64044;59.904;10.738;2022-10-31T05:10:41;15.57;;;6.63;;
74293;SDS011;64044;59.904;10.738;2022-10-31T05:13:07;11.30;;;7.35;;
74293;SDS011;64044;59.904;10.738;2022-10-31T05:15:33;10.82;;;6.38;;
74293;SDS011;64044;59.904;10.738;2022-10-31T05:17:59;10.52;;;6.85;;
74293;SDS011;64044;59.904;10.738;2022-10-31T05:20:26;12.40;;;6.72;;
74293;SDS011;64044;59.904;10.738;2022-10-31T05:22:53;12.32;;;7.22;;
74293;SDS011;64044;59.904;10.738;2022-10-31T05:25:21;11.30;;;6.45;;
74293;SDS011;64044;59.904;10.738;2022-10-31T05:27:49;12.85;;;7.03;;
74293;SDS011;64044;59.904;10.738;2022-10-31T05:30:17;13.88;;;7.38;;
74293;SDS011;64044;59.904;10.738;2022-10-31T05:32:45;13.57;;;7.72;;
74293;SDS011;64044;59.904;10.738;2022-10-31T05:35:14;16.80;;;7.18;;
74293;SDS011;64044;59.904;10.738;2022-10-31T05:37:42;14.05;;;7.97;;
74293;SDS011;64044;59.904;10.738;2022-10-31T05:40:09;19.08;;;7.60;;
74293;SDS011;64044;59.904;10.738;2022-10-31T05:42:38;13.82;;;8.02;;
74293;SDS011;64044;59.904;10.738;2022-10-31T05:45:04;14.65;;;8.05;;
74293;SDS011;64044;59.904;10.738;2022-10-31T05:47:31;13.18;;;8.13;;
74293;SDS011;64044;59.904;10.738;2022-10-31T05:49:57;13.63;;;8.27;;
74293;SDS011;64044;59.904;10.738;2022-10-31T05:52:22;12.82;;;7.68;;
74293;SDS011;64044;59.904;10.738;2022-10-31T05:54:48;12.50;;;7.82;;
74293;SDS011;64044;59.904;10.738;2022-10-31T05:57:13;13.63;;;8.63;;
74293;SDS011;64044;59.904;10.738;2022-10-31T05:59:39;11.63;;;6.70;;
74293;SDS011;64044;59.904;10.738;2022-10-31T06:02:04;11.30;;;7.47;;
74293;SDS011;64044;59.904;10.738;2022-10-31T06:04:30;14.32;;;7.90;;
74293;SDS011;64044;59.904;10.738;2022-10-31T06:06:56;12.93;;;7.88;;
74293;SDS011;64044;59.904;10.738;2022-10-31T06:09:22;14.85;;;8.13;;
74293;SDS011;64044;59.904;10.738;2022-10-31T06:11:48;16.98;;;9.52;;
74293;SDS011;64044;59.904;10.738;2022-10-31T06:14:13;17.70;;;9.48;;
74293;SDS011;64044;59.904;10.738;2022-10-31T06:16:39;17.40;;;9.20;;
74293;SDS011;64044;59.904;10.738;2022-10-31T06:19:05;16.58;;;10.20;;
74293;SDS011;64044;59.904;10.738;2022-10-31T06:21:30;14.32;;;8.85;;
74293;SDS011;64044;59.904;10.738;2022-10-31T06:23:56;16.70;;;9.68;;
74293;SDS011;64044;59.904;10.738;2022-10-31T06:26:22;14.55;;;8.30;;
74293;SDS011;64044;59.904;10.738;2022-10-31T06:28:47;14.20;;;8.52;;
74293;SDS011;64044;59.904;10.738;2022-10-31T06:31:13;15.32;;;8.85;;
74293;SDS011;64044;59.904;10.738;2022-10-31T06:33:40;20.27;;;10.63;;
74293;SDS011;64044;59.904;10.738;2022-10-31T06:36:06;14.05;;;9.07;;
74293;SDS011;64044;59.904;10.738;2022-10-31T06:38:32;16.40;;;9.27;;
74293;SDS011;64044;59.904;10.738;2022-10-31T06:41:01;14.95;;;8.85;;
74293;SDS011;64044;59.904;10.738;2022-10-31T06:43:31;14.65;;;8.40;;
74293;SDS011;64044;59.904;10.738;2022-10-31T06:45:57;12.77;;;8.23;;
74293;SDS011;64044;59.904;10.738;2022-10-31T06:48:22;11.43;;;7.25;;
74293;SDS011;64044;59.904;10.738;2022-10-31T06:50:48;11.63;;;7.13;;
74293;SDS011;64044;59.904;10.738;2022-10-31T06:53:14;13.63;;;8.15;;
74293;SDS011;64044;59.904;10.738;2022-10-31T06:55:40;11.75;;;7.82;;
74293;SDS011;64044;59.904;10.738;2022-10-31T06:58:06;13.55;;;8.65;;
74293;SDS011;64044;59.904;10.738;2022-10-31T07:00:34;16.70;;;8.00;;
74293;SDS011;64044;59.904;10.738;2022-10-31T07:03:00;13.88;;;8.35;;
74293;SDS011;64044;59.904;10.738;2022-10-31T07:05:28;13.48;;;8.18;;
74293;SDS011;64044;59.904;10.738;2022-10-31T07:07:54;10.65;;;6.72;;
74293;SDS011;64044;59.904;10.738;2022-10-31T07:10:22;11.75;;;6.60;;
74293;SDS011;64044;59.904;10.738;2022-10-31T07:12:53;9.05;;;5.20;;
74293;SDS011;64044;59.904;10.738;2022-10-31T07:15:23;7.18;;;4.82;;
74293;SDS011;64044;59.904;10.738;2022-10-31T07:17:49;8.93;;;5.18;;
74293;SDS011;64044;59.904;10.738;2022-10-31T07:20:15;10.75;;;6.25;;
74293;SDS011;64044;59.904;10.738;2022-10-31T07:22:41;8.55;;;4.97;;
74293;SDS011;64044;59.904;10.738;2022-10-31T07:25:07;7.80;;;4.63;;
74293;SDS011;64044;59.904;10.738;2022-10-31T07:27:41;4.88;;;3.08;;
74293;SDS011;64044;59.904;10.738;2022-10-31T07:30:08;4.03;;;2.40;;
74293;SDS011;64044;59.904;10.738;2022-10-31T07:32:39;2.30;;;2.08;;
74293;SDS011;64044;59.904;10.738;2022-10-31T07:35:09;3.30;;;2.38;;
74293;SDS011;64044;59.904;10.738;2022-10-31T07:37:36;3.38;;;1.90;;
74293;SDS011;64044;59.904;10.738;2022-10-31T07:40:05;2.05;;;1.67;;
74293;SDS011;64044;59.904;10.738;2022-10-31T07:42:36;3.97;;;2.00;;
74293;SDS011;64044;59.904;10.738;2022-10-31T07:45:03;2.20;;;2.00;;
74293;SDS011;64044;59.904;10.738;2022-10-31T07:47:29;3.53;;;1.98;;
74293;SDS011;64044;59.904;10.738;2022-10-31T07:50:02;2.72;;;1.80;;
74293;SDS011;64044;59.904;10.738;2022-10-31T07:52:28;2.83;;;1.98;;
74293;SDS011;64044;59.904;10.738;2022-10-31T07:54:53;5.72;;;1.95;;
74293;SDS011;64044;59.904;10.738;2022-10-31T07:57:19;2.20;;;2.00;;
74293;SDS011;64044;59.904;10.738;2022-10-31T07:59:44;3.00;;;1.98;;
74293;SDS011;64044;59.904;10.738;2022-10-31T08:02:10;3.67;;;1.98;;
74293;SDS011;64044;59.904;10.738;2022-10-31T08:04:35;4.45;;;2.05;;
74293;SDS011;64044;59.904;10.738;2022-10-31T08:07:01;4.40;;;2.17;;
74293;SDS011;64044;59.904;10.738;2022-10-31T08:09:27;2.92;;;1.92;;
74293;SDS011;64044;59.904;10.738;2022-10-31T08:11:52;3.92;;;1.80;;
74293;SDS011;64044;59.904;10.738;2022-10-31T08:14:18;2.22;;;1.40;;
74293;SDS011;64044;59.904;10.738;2022-10-31T08:16:44;3.58;;;1.73;;
74293;SDS011;64044;59.904;10.738;2022-10-31T08:19:10;2.70;;;1.58;;
74293;SDS011;64044;59.904;10.738;2022-10-31T08:21:35;3.40;;;1.80;;
74293;SDS011;64044;59.904;10.738;2022-10-31T08:24:01;2.05;;;1.63;;
74293;SDS011;64044;59.904;10.738;2022-10-31T08:26:27;3.08;;;1.75;;
74293;SDS011;64044;59.904;10.738;2022-10-31T08:28:52;3.80;;;1.77;;
74293;SDS011;64044;59.904;10.738;2022-10-31T08:31:19;2.58;;;1.85;;
74293;SDS011;64044;59.904;10.738;2022-10-31T08:33:46;4.53;;;2.00;;
74293;SDS011;64044;59.904;10.738;2022-10-31T08:36:11;3.38;;;1.52;;
74293;SDS011;64044;59.904;10.738;2022-10-31T08:38:37;4.25;;;2.38;;
74293;SDS011;64044;59.904;10.738;2022-10-31T08:41:03;5.28;;;2.30;;
74293;SDS011;64044;59.904;10.738;2022-10-31T08:43:28;3.17;;;1.70;;
74293;SDS011;64044;59.904;10.738;2022-10-31T08:45:54;4.18;;;2.08;;
74293;SDS011;64044;59.904;10.738;2022-10-31T08:48:20;4.22;;;2.20;;
74293;SDS011;64044;59.904;10.738;2022-10-31T08:50:46;4.57;;;2.38;;
74293;SDS011;64044;59.904;10.738;2022-10-31T08:53:13;6.60;;;2.78;;
74293;SDS011;64044;59.904;10.738;2022-10-31T08:55:41;6.32;;;2.75;;
74293;SDS011;64044;59.904;10.738;2022-10-31T08:58:09;4.95;;;3.30;;
74293;SDS011;64044;59.904;10.738;2022-10-31T09:00:39;4.90;;;2.75;;
74293;SDS011;64044;59.904;10.738;2022-10-31T09:03:06;9.98;;;3.40;;
74293;SDS011;64044;59.904;10.738;2022-10-31T09:05:56;5.00;;;2.90;;
74293;SDS011;64044;59.904;10.738;2022-10-31T09:08:23;6.40;;;3.00;;
74293;SDS011;64044;59.904;10.738;2022-10-31T09:10:49;4.80;;;2.63;;
74293;SDS011;64044;59.904;10.738;2022-10-31T09:13:18;3.72;;;2.45;;
74293;SDS011;64044;59.904;10.738;2022-10-31T09:15:46;4.45;;;3.20;;
74293;SDS011;64044;59.904;10.738;2022-10-31T09:18:15;3.97;;;2.45;;
74293;SDS011;64044;59.904;10.738;2022-10-31T09:20:43;4.07;;;2.40;;
74293;SDS011;64044;59.904;10.738;2022-10-31T09:23:13;4.03;;;2.35;;
74293;SDS011;64044;59.904;10.738;2022-10-31T09:28:08;5.82;;;1.55;;
74293;SDS011;64044;59.904;10.738;2022-10-31T09:30:35;4.95;;;2.25;;
74293;SDS011;64044;59.904;10.738;2022-10-31T09:33:14;5.18;;;2.20;;
74293;SDS011;64044;59.904;10.738;2022-10-31T09:35:40;5.07;;;2.20;;
74293;SDS011;64044;59.904;10.738;2022-10-31T09:38:08;6.95;;;2.45;;
74293;SDS011;64044;59.904;10.738;2022-10-31T09:40:40;5.25;;;2.65;;
74293;SDS011;64044;59.904;10.738;2022-10-31T09:51:33;4.40;;;2.15;;
74293;SDS011;64044;59.904;10.738;2022-10-31T09:56:52;5.28;;;2.05;;
74293;SDS011;64044;59.904;10.738;2022-10-31T09:59:26;4.95;;;2.28;;
74293;SDS011;64044;59.904;10.738;2022-10-31T10:01:57;4.70;;;2.50;;
74293;SDS011;64044;59.904;10.738;2022-10-31T10:06:53;5.03;;;2.20;;
74293;SDS011;64044;59.904;10.738;2022-10-31T10:09:20;4.78;;;2.08;;
74293;SDS011;64044;59.904;10.738;2022-10-31T10:25:44;8.30;;;3.13;;
74293;SDS011;64044;59.904;10.738;2022-10-31T10:33:42;4.40;;;2.60;;
74293;SDS011;64044;59.904;10.738;2022-10-31T10:41:47;4.40;;;2.10;;
74293;SDS011;64044;59.904;10.738;2022-10-31T10:44:33;4.68;;;2.47;;
74293;SDS011;64044;59.904;10.738;2022-10-31T10:47:21;6.75;;;2.88;;
74293;SDS011;64044;59.904;10.738;2022-10-31T10:52:58;4.93;;;2.47;;
74293;SDS011;64044;59.904;10.738;2022-10-31T10:55:47;4.88;;;2.50;;
74293;SDS011;64044;59.904;10.738;2022-10-31T10:58:20;6.25;;;2.40;;
74293;SDS011;64044;59.904;10.738;2022-10-31T11:00:46;5.60;;;2.20;;
74293;SDS011;64044;59.904;10.738;2022-10-31T11:03:13;4.00;;;1.85;;
74293;SDS011;64044;59.904;10.738;2022-10-31T11:08:35;5.78;;;2.28;;
74293;SDS011;64044;59.904;10.738;2022-10-31T11:11:02;4.40;;;2.15;;
74293;SDS011;64044;59.904;10.738;2022-10-31T11:13:30;5.28;;;2.17;;
74293;SDS011;64044;59.904;10.738;2022-10-31T11:21:37;3.33;;;1.75;;
74293;SDS011;64044;59.904;10.738;2022-10-31T11:26:37;5.00;;;1.77;;
74293;SDS011;64044;59.904;10.738;2022-10-31T11:29:05;5.95;;;1.83;;
74293;SDS011;64044;59.904;10.738;2022-10-31T11:31:47;5.78;;;2.05;;
74293;SDS011;64044;59.904;10.738;2022-10-31T11:36:48;6.10;;;1.98;;
74293;SDS011;64044;59.904;10.738;2022-10-31T11:39:23;4.88;;;1.98;;
74293;SDS011;64044;59.904;10.738;2022-10-31T11:41:50;5.72;;;1.98;;
74293;SDS011;64044;59.904;10.738;2022-10-31T11:44:18;4.50;;;1.67;;
74293;SDS011;64044;59.904;10.738;2022-10-31T11:47:21;4.55;;;1.73;;
74293;SDS011;64044;59.904;10.738;2022-10-31T11:49:41;5.72;;;1.90;;
74293;SDS011;64044;59.904;10.738;2022-10-31T11:52:17;4.97;;;1.92;;
74293;SDS011;64044;59.904;10.738;2022-10-31T11:57:41;3.72;;;1.60;;
74293;SDS011;64044;59.904;10.738;2022-10-31T12:00:20;3.60;;;1.60;;
74293;SDS011;64044;59.904;10.738;2022-10-31T12:05:36;6.15;;;1.70;;
74293;SDS011;64044;59.904;10.738;2022-10-31T12:08:04;3.53;;;1.50;;
74293;SDS011;64044;59.904;10.738;2022-10-31T12:10:35;4.82;;;1.50;;
74293;SDS011;64044;59.904;10.738;2022-10-31T12:15:59;4.55;;;1.67;;
74293;SDS011;64044;59.904;10.738;2022-10-31T12:21:39;6.17;;;1.50;;
74293;SDS011;64044;59.904;10.738;2022-10-31T12:58:01;4.18;;;1.40;;
74293;SDS011;64044;59.904;10.738;2022-10-31T13:00:38;4.13;;;1.75;;
74293;SDS011;64044;59.904;10.738;2022-10-31T13:05:58;5.32;;;1.88;;
74293;SDS011;64044;59.904;10.738;2022-10-31T13:08:29;3.88;;;1.55;;
74293;SDS011;64044;59.904;10.738;2022-10-31T13:13:41;2.95;;;1.50;;
74293;SDS011;64044;59.904;10.738;2022-10-31T13:16:48;4.32;;;1.50;;
74293;SDS011;64044;59.904;10.738;2022-10-31T13:24:36;7.43;;;1.55;;
74293;SDS011;64044;59.904;10.738;2022-10-31T13:27:11;3.90;;;1.42;;
74293;SDS011;64044;59.904;10.738;2022-10-31T13:29:44;3.85;;;1.17;;
74293;SDS011;64044;59.904;10.738;2022-10-31T13:32:14;5.07;;;1.50;;
74293;SDS011;64044;59.904;10.738;2022-10-31T13:34:42;4.97;;;1.50;;
74293;SDS011;64044;59.904;10.738;2022-10-31T13:39:49;5.38;;;1.65;;
74293;SDS011;64044;59.904;10.738;2022-10-31T13:42:39;7.47;;;2.10;;
74293;SDS011;64044;59.904;10.738;2022-10-31T13:45:11;6.47;;;1.50;;
74293;SDS011;64044;59.904;10.738;2022-10-31T13:50:14;5.68;;;1.70;;
74293;SDS011;64044;59.904;10.738;2022-10-31T13:52:43;5.05;;;1.42;;
74293;SDS011;64044;59.904;10.738;2022-10-31T13:58:02;4.07;;;1.65;;
74293;SDS011;64044;59.904;10.738;2022-10-31T14:03:56;5.18;;;1.48;;
74293;SDS011;64044;59.904;10.738;2022-10-31T14:11:59;5.93;;;1.63;;
74293;SDS011;64044;59.904;10.738;2022-10-31T14:14:30;3.80;;;1.40;;
74293;SDS011;64044;59.904;10.738;2022-10-31T14:16:59;6.28;;;1.58;;
74293;SDS011;64044;59.904;10.738;2022-10-31T14:19:26;5.35;;;1.42;;
74293;SDS011;64044;59.904;10.738;2022-10-31T14:21:52;5.03;;;1.42;;
74293;SDS011;64044;59.904;10.738;2022-10-31T14:29:53;5.63;;;1.30;;
74293;SDS011;64044;59.904;10.738;2022-10-31T14:32:25;3.03;;;1.10;;
74293;SDS011;64044;59.904;10.738;2022-10-31T14:34:53;4.88;;;1.40;;
74293;SDS011;64044;59.904;10.738;2022-10-31T14:53:56;2.55;;;1.13;;
74293;SDS011;64044;59.904;10.738;2022-10-31T14:56:10;3.53;;;1.10;;
74293;SDS011;64044;59.904;10.738;2022-10-31T14:58:38;6.00;;;1.98;;
74293;SDS011;64044;59.904;10.738;2022-10-31T15:03:50;4.25;;;1.45;;
74293;SDS011;64044;59.904;10.738;2022-10-31T15:06:17;4.78;;;1.30;;
74293;SDS011;64044;59.904;10.738;2022-10-31T15:11:17;4.18;;;1.40;;
74293;SDS011;64044;59.904;10.738;2022-10-31T15:13:53;4.57;;;1.27;;
74293;SDS011;64044;59.904;10.738;2022-10-31T15:16:21;5.78;;;1.30;;
74293;SDS011;64044;59.904;10.738;2022-10-31T15:18:59;6.82;;;1.17;;
74293;SDS011;64044;59.904;10.738;2022-10-31T15:21:28;6.35;;;1.70;;
74293;SDS011;64044;59.904;10.738;2022-10-31T15:23:55;9.48;;;1.50;;
74293;SDS011;64044;59.904;10.738;2022-10-31T15:26:23;5.90;;;1.50;;
74293;SDS011;64044;59.904;10.738;2022-10-31T15:29:10;10.10;;;1.30;;
74293;SDS011;64044;59.904;10.738;2022-10-31T15:31:38;6.57;;;1.80;;
74293;SDS011;64044;59.904;10.738;2022-10-31T15:37:02;7.55;;;1.60;;
74293;SDS011;64044;59.904;10.738;2022-10-31T15:39:28;6.30;;;1.70;;
74293;SDS011;64044;59.904;10.738;2022-10-31T15:41:55;7.10;;;1.30;;
74293;SDS011;64044;59.904;10.738;2022-10-31T15:47:17;6.10;;;1.33;;
74293;SDS011;64044;59.904;10.738;2022-10-31T15:55:00;7.40;;;2.15;;
74293;SDS011;64044;59.904;10.738;2022-10-31T15:57:29;42.40;;;33.75;;
74293;SDS011;64044;59.904;10.738;2022-10-31T15:59:56;15.70;;;8.35;;
74293;SDS011;64044;59.904;10.738;2022-10-31T16:02:23;9.68;;;3.58;;
74293;SDS011;64044;59.904;10.738;2022-10-31T16:04:52;5.47;;;2.10;;
74293;SDS011;64044;59.904;10.738;2022-10-31T16:07:20;11.68;;;2.20;;
74293;SDS011;64044;59.904;10.738;2022-10-31T16:12:15;9.82;;;1.75;;
74293;SDS011;64044;59.904;10.738;2022-10-31T16:14:41;7.10;;;1.60;;
74293;SDS011;64044;59.904;10.738;2022-10-31T16:17:10;6.43;;;1.67;;
74293;SDS011;64044;59.904;10.738;2022-10-31T16:19:54;5.40;;;1.67;;
74293;SDS011;64044;59.904;10.738;2022-10-31T16:22:31;7.07;;;1.67;;
74293;SDS011;64044;59.904;10.738;2022-10-31T16:25:04;10.55;;;1.85;;
74293;SDS011;64044;59.904;10.738;2022-10-31T16:27:39;7.43;;;1.88;;
74293;SDS011;64044;59.904;10.738;2022-10-31T16:32:56;11.60;;;2.40;;
74293;SDS011;64044;59.904;10.738;2022-10-31T16:38:04;10.77;;;2.67;;
74293;SDS011;64044;59.904;10.738;2022-10-31T16:40:30;9.70;;;2.85;;
74293;SDS011;64044;59.904;10.738;2022-10-31T16:42:57;14.38;;;3.53;;
74293;SDS011;64044;59.904;10.738;2022-10-31T16:45:27;46.00;;;11.93;;
74293;SDS011;64044;59.904;10.738;2022-10-31T16:50:27;12.45;;;4.60;;
74293;SDS011;64044;59.904;10.738;2022-10-31T16:52:52;12.85;;;3.20;;
74293;SDS011;64044;59.904;10.738;2022-10-31T16:55:19;8.82;;;3.20;;
74293;SDS011;64044;59.904;10.738;2022-10-31T16:57:46;11.35;;;2.97;;
74293;SDS011;64044;59.904;10.738;2022-10-31T17:00:14;25.42;;;6.22;;
74293;SDS011;64044;59.904;10.738;2022-10-31T17:02:41;31.70;;;7.90;;
74293;SDS011;64044;59.904;10.738;2022-10-31T17:05:10;25.75;;;7.03;;
74293;SDS011;64044;59.904;10.738;2022-10-31T17:07:40;33.80;;;7.57;;
74293;SDS011;64044;59.904;10.738;2022-10-31T17:10:07;45.13;;;11.80;;
74293;SDS011;64044;59.904;10.738;2022-10-31T17:12:33;45.75;;;12.63;;
74293;SDS011;64044;59.904;10.738;2022-10-31T17:15:00;23.58;;;6.10;;
74293;SDS011;64044;59.904;10.738;2022-10-31T17:17:25;17.52;;;4.45;;
74293;SDS011;64044;59.904;10.738;2022-10-31T17:19:51;23.33;;;5.50;;
74293;SDS011;64044;59.904;10.738;2022-10-31T17:22:17;15.82;;;4.75;;
74293;SDS011;64044;59.904;10.738;2022-10-31T17:24:42;16.90;;;4.47;;
74293;SDS011;64044;59.904;10.738;2022-10-31T17:27:08;21.58;;;5.90;;
74293;SDS011;64044;59.904;10.738;2022-10-31T17:29:33;23.45;;;7.47;;
74293;SDS011;64044;59.904;10.738;2022-10-31T17:32:00;38.70;;;9.70;;
74293;SDS011;64044;59.904;10.738;2022-10-31T17:34:28;28.50;;;8.88;;
74293;SDS011;64044;59.904;10.738;2022-10-31T17:36:54;22.38;;;6.35;;
74293;SDS011;64044;59.904;10.738;2022-10-31T17:39:19;18.17;;;4.60;;
74293;SDS011;64044;59.904;10.738;2022-10-31T17:41:48;17.25;;;4.13;;
74293;SDS011;64044;59.904;10.738;2022-10-31T17:44:15;17.48;;;4.50;;
74293;SDS011;64044;59.904;10.738;2022-10-31T17:46:41;27.40;;;7.35;;
74293;SDS011;64044;59.904;10.738;2022-10-31T17:49:09;36.05;;;9.43;;
74293;SDS011;64044;59.904;10.738;2022-10-31T17:51:35;32.50;;;9.15;;
74293;SDS011;64044;59.904;10.738;2022-10-31T17:54:02;33.00;;;9.43;;
74293;SDS011;64044;59.904;10.738;2022-10-31T17:56:29;28.35;;;7.28;;
74293;SDS011;64044;59.904;10.738;2022-10-31T17:58:54;21.17;;;6.30;;
74293;SDS011;64044;59.904;10.738;2022-10-31T18:01:22;15.98;;;4.97;;
74293;SDS011;64044;59.904;10.738;2022-10-31T18:03:48;17.80;;;4.72;;
74293;SDS011;64044;59.904;10.738;2022-10-31T18:06:13;15.88;;;4.53;;
74293;SDS011;64044;59.904;10.738;2022-10-31T18:08:41;21.98;;;6.90;;
74293;SDS011;64044;59.904;10.738;2022-10-31T18:11:09;29.55;;;7.68;;
74293;SDS011;64044;59.904;10.738;2022-10-31T18:13:37;30.63;;;9.57;;
74293;SDS011;64044;59.904;10.738;2022-10-31T18:16:09;35.72;;;9.40;;
74293;SDS011;64044;59.904;10.738;2022-10-31T18:18:37;36.80;;;11.20;;
74293;SDS011;64044;59.904;10.738;2022-10-31T18:21:02;33.72;;;9.75;;
74293;SDS011;64044;59.904;10.738;2022-10-31T18:23:28;27.52;;;7.50;;
74293;SDS011;64044;59.904;10.738;2022-10-31T18:25:54;20.55;;;5.93;;
74293;SDS011;64044;59.904;10.738;2022-10-31T18:28:20;16.38;;;4.65;;
74293;SDS011;64044;59.904;10.738;2022-10-31T18:30:46;15.50;;;4.50;;
74293;SDS011;64044;59.904;10.738;2022-10-31T18:33:12;22.52;;;4.05;;
74293;SDS011;64044;59.904;10.738;2022-10-31T18:35:38;9.55;;;2.92;;
74293;SDS011;64044;59.904;10.738;2022-10-31T18:38:04;24.90;;;4.10;;
74293;SDS011;64044;59.904;10.738;2022-10-31T18:40:31;16.40;;;3.25;;
74293;SDS011;64044;59.904;10.738;2022-10-31T18:42:58;10.82;;;2.90;;
74293;SDS011;64044;59.904;10.738;2022-10-31T18:45:24;17.20;;;3.92;;
74293;SDS011;64044;59.904;10.738;2022-10-31T18:47:50;17.30;;;3.88;;
74293;SDS011;64044;59.904;10.738;2022-10-31T18:50:16;19.45;;;4.90;;